createdAt,value
2022-08-24T00:01:21.005Z,6.20
2022-08-24T00:03:48.160Z,6.15
2022-08-24T00:06:19.419Z,9.93
2022-08-24T00:08:48.649Z,6.82
2022-08-24T00:11:15.986Z,6.05
2022-08-24T00:13:43.259Z,5.38
2022-08-24T00:16:11.355Z,5.45
2022-08-24T00:18:39.423Z,8.75
2022-08-24T00:21:08.037Z,6.25
2022-08-24T00:23:36.082Z,7.75
2022-08-24T00:26:04.303Z,6.47
2022-08-24T00:28:31.515Z,7.05
2022-08-24T00:30:58.523Z,8.80
2022-08-24T00:33:25.575Z,9.15
2022-08-24T00:35:52.511Z,5.15
2022-08-24T00:38:19.330Z,8.77
2022-08-24T00:40:48.501Z,8.07
2022-08-24T00:43:22.276Z,5.28
2022-08-24T00:45:49.049Z,8.48
2022-08-24T00:48:21.880Z,6.63
2022-08-24T00:51:01.173Z,5.22
2022-08-24T00:53:32.247Z,8.98
2022-08-24T00:56:05.107Z,6.43
2022-08-24T00:58:56.920Z,7.70
2022-08-24T01:01:26.999Z,7.35
2022-08-24T01:03:57.133Z,5.75
2022-08-24T01:06:24.718Z,10.90
2022-08-24T01:08:56.780Z,8.07
2022-08-24T01:11:26.357Z,9.45
2022-08-24T01:13:54.781Z,7.00
2022-08-24T01:16:40.758Z,6.80
2022-08-24T01:19:33.023Z,7.95
2022-08-24T01:22:07.057Z,8.10
2022-08-24T01:24:36.244Z,6.63
2022-08-24T01:27:03.786Z,6.70
2022-08-24T01:29:32.237Z,7.68
2022-08-24T01:31:59.884Z,8.18
2022-08-24T01:34:27.353Z,6.45
2022-08-24T01:36:56.431Z,9.43
2022-08-24T01:39:29.025Z,11.27
2022-08-24T01:41:56.636Z,7.10
2022-08-24T01:44:25.890Z,10.20
2022-08-24T01:46:54.317Z,12.05
2022-08-24T01:49:28.373Z,11.10
2022-08-24T01:51:55.737Z,9.13
2022-08-24T01:54:22.670Z,11.40
2022-08-24T01:56:49.525Z,16.05
2022-08-24T01:59:17.241Z,12.63
2022-08-24T02:01:53.764Z,11.32
2022-08-24T02:04:23.675Z,10.55
2022-08-24T02:06:51.031Z,11.85
2022-08-24T02:09:18.182Z,9.95
2022-08-24T02:11:45.134Z,11.98
2022-08-24T02:14:11.958Z,9.02
2022-08-24T02:16:41.265Z,9.43
2022-08-24T02:19:08.682Z,9.55
2022-08-24T02:21:35.814Z,7.47
2022-08-24T02:24:03.404Z,10.90
2022-08-24T02:26:31.596Z,12.35
2022-08-24T02:29:00.342Z,7.85
2022-08-24T02:31:31.096Z,8.60
2022-08-24T02:33:58.083Z,10.95
2022-08-24T02:36:26.280Z,12.25
2022-08-24T02:38:54.711Z,9.48
2022-08-24T02:41:23.062Z,9.52
2022-08-24T02:43:50.953Z,13.75
2022-08-24T02:46:29.027Z,11.75
2022-08-24T02:49:10.688Z,9.30
2022-08-24T02:51:44.518Z,10.13
2022-08-24T02:54:13.850Z,10.27
2022-08-24T02:56:40.644Z,8.63
2022-08-24T02:59:07.635Z,8.77
2022-08-24T03:01:34.582Z,10.98
2022-08-24T03:04:01.429Z,9.63
2022-08-24T03:06:28.345Z,7.22
2022-08-24T03:08:57.002Z,9.48
2022-08-24T03:11:28.481Z,8.32
2022-08-24T03:14:01.736Z,9.90
2022-08-24T03:16:31.739Z,9.13
2022-08-24T03:18:58.695Z,9.98
2022-08-24T03:21:26.042Z,9.85
2022-08-24T03:23:52.936Z,6.82
2022-08-24T03:26:20.336Z,7.57
2022-08-24T03:28:47.177Z,8.27
2022-08-24T03:31:17.229Z,7.45
2022-08-24T03:33:44.236Z,9.15
2022-08-24T03:36:14.121Z,9.70
2022-08-24T03:38:42.093Z,7.38
2022-08-24T03:41:09.533Z,11.65
2022-08-24T03:43:48.634Z,7.07
2022-08-24T03:46:21.457Z,11.02
2022-08-24T03:48:49.150Z,7.38
2022-08-24T03:51:18.697Z,6.43
2022-08-24T03:53:48.748Z,7.05
2022-08-24T03:56:16.982Z,11.07
2022-08-24T03:58:44.305Z,7.97
2022-08-24T04:01:12.033Z,8.57
2022-08-24T04:03:41.620Z,10.88
2022-08-24T04:06:11.726Z,11.15
2022-08-24T04:08:41.366Z,11.90
2022-08-24T04:11:12.469Z,10.00
2022-08-24T04:13:39.607Z,11.18
2022-08-24T04:16:12.937Z,9.95
2022-08-24T04:18:40.591Z,7.35
2022-08-24T04:21:15.000Z,9.70
2022-08-24T04:23:47.615Z,8.80
2022-08-24T04:26:16.576Z,6.25
2022-08-24T04:28:59.914Z,9.85
2022-08-24T04:31:28.573Z,6.97
2022-08-24T04:33:55.445Z,9.07
2022-08-24T04:36:22.639Z,8.23
2022-08-24T04:38:50.582Z,7.70
2022-08-24T04:41:27.447Z,10.40
2022-08-24T04:43:59.642Z,8.25
2022-08-24T04:46:27.319Z,10.73
2022-08-24T04:48:54.645Z,7.68
2022-08-24T04:51:22.575Z,10.80
2022-08-24T04:53:50.819Z,12.13
2022-08-24T04:56:26.321Z,8.30
2022-08-24T04:59:10.139Z,8.18
2022-08-24T05:02:00.658Z,7.35
2022-08-24T05:04:27.576Z,6.38
2022-08-24T05:06:55.983Z,9.73
2022-08-24T05:09:22.827Z,6.63
2022-08-24T05:11:50.301Z,10.45
2022-08-24T05:14:17.238Z,7.40
2022-08-24T05:16:45.770Z,8.90
2022-08-24T05:19:19.870Z,8.55
2022-08-24T05:21:47.387Z,8.40
2022-08-24T05:24:14.243Z,9.50
2022-08-24T05:26:41.382Z,12.73
2022-08-24T05:29:09.221Z,10.18
2022-08-24T05:31:36.073Z,8.77
2022-08-24T05:34:04.071Z,9.18
2022-08-24T05:36:33.804Z,8.77
2022-08-24T05:39:11.514Z,12.13
2022-08-24T05:41:44.643Z,14.98
2022-08-24T05:44:13.356Z,14.60
2022-08-24T05:46:40.614Z,8.93
2022-08-24T05:49:08.363Z,10.57
2022-08-24T05:51:36.167Z,8.32
2022-08-24T05:54:05.049Z,10.13
2022-08-24T05:56:32.257Z,10.18
2022-08-24T05:59:05.815Z,11.10
2022-08-24T06:01:43.329Z,13.85
2022-08-24T06:04:14.814Z,16.60
2022-08-24T06:07:42.426Z,12.50
2022-08-24T06:10:35.257Z,12.68
2022-08-24T06:12:59.635Z,8.18
2022-08-24T06:15:31.201Z,10.02
2022-08-24T06:18:53.801Z,6.70
2022-08-24T06:21:28.742Z,7.45
2022-08-24T06:23:56.637Z,15.38
2022-08-24T06:26:42.966Z,10.63
2022-08-24T06:29:11.897Z,12.15
2022-08-24T06:31:41.827Z,11.77
2022-08-24T06:34:13.357Z,10.35
2022-08-24T06:36:40.733Z,10.48
2022-08-24T06:39:09.537Z,14.07
2022-08-24T06:41:38.365Z,9.32
2022-08-24T06:44:07.092Z,9.50
2022-08-24T06:46:36.355Z,9.95
2022-08-24T06:49:03.763Z,12.13
2022-08-24T06:51:32.489Z,8.38
2022-08-24T06:54:06.836Z,16.45
2022-08-24T06:56:35.686Z,12.68
2022-08-24T06:59:03.966Z,8.00
2022-08-24T07:01:31.345Z,8.02
2022-08-24T07:04:00.519Z,7.03
2022-08-24T07:06:29.894Z,12.13
2022-08-24T07:09:03.920Z,11.57
2022-08-24T07:11:32.262Z,13.68
2022-08-24T07:13:59.060Z,9.50
2022-08-24T07:16:26.026Z,13.15
2022-08-24T07:18:54.802Z,10.48
2022-08-24T07:21:21.619Z,6.40
2022-08-24T07:23:49.573Z,7.50
2022-08-24T07:26:23.169Z,13.73
2022-08-24T07:29:01.049Z,8.85
2022-08-24T07:31:34.707Z,9.77
2022-08-24T07:34:06.870Z,13.02
2022-08-24T07:36:34.394Z,11.23
2022-08-24T07:39:01.261Z,15.55
2022-08-24T07:42:02.533Z,9.27
2022-08-24T07:44:17.818Z,8.40
2022-08-24T07:46:45.139Z,10.45
2022-08-24T07:49:29.353Z,7.45
2022-08-24T07:51:58.937Z,9.70
2022-08-24T07:54:26.024Z,12.55
2022-08-24T07:56:53.075Z,11.05
2022-08-24T07:59:20.004Z,9.82
2022-08-24T08:01:50.686Z,11.55
2022-08-24T08:04:22.051Z,8.05
2022-08-24T08:09:21.836Z,8.52
2022-08-24T08:11:49.413Z,12.90
2022-08-24T08:14:16.252Z,13.27
2022-08-24T08:16:43.251Z,7.55
2022-08-24T08:19:10.685Z,9.57
2022-08-24T08:22:08.105Z,9.40
2022-08-24T08:24:37.298Z,8.95
2022-08-24T08:27:04.551Z,10.45
2022-08-24T08:29:33.145Z,10.57
2022-08-24T08:32:03.196Z,11.25
2022-08-24T08:34:31.454Z,10.75
2022-08-24T08:37:03.655Z,9.68
2022-08-24T08:39:31.408Z,13.30
2022-08-24T08:42:34.701Z,11.52
2022-08-24T08:45:31.959Z,10.93
2022-08-24T08:48:27.148Z,9.15
2022-08-24T08:51:30.153Z,11.40
2022-08-24T08:54:08.804Z,12.50
2022-08-24T08:56:59.553Z,7.65
2022-08-24T08:59:51.583Z,9.10
2022-08-24T09:02:58.410Z,8.65
2022-08-24T09:06:12.659Z,10.82
2022-08-24T09:08:58.043Z,11.30
2022-08-24T09:11:38.527Z,8.70
2022-08-24T09:14:46.749Z,7.35
2022-08-24T09:17:19.482Z,10.23
2022-08-24T09:19:49.447Z,12.75
2022-08-24T09:22:22.738Z,7.60
2022-08-24T09:24:55.267Z,10.90
2022-08-24T09:27:43.405Z,9.43
2022-08-24T09:30:11.224Z,10.90
2022-08-24T09:33:00.358Z,7.35
2022-08-24T09:36:05.055Z,9.52
2022-08-24T09:38:50.776Z,10.20
2022-08-24T09:41:56.700Z,12.50
2022-08-24T09:44:29.411Z,9.18
2022-08-24T09:47:09.367Z,12.63
2022-08-24T09:49:38.517Z,10.25
2022-08-24T09:52:26.663Z,9.13
2022-08-24T09:54:57.394Z,8.65
2022-08-24T09:57:44.196Z,12.65
2022-08-24T10:00:23.982Z,15.02
2022-08-24T10:03:08.820Z,10.65
2022-08-24T10:06:10.246Z,7.82
2022-08-24T10:09:24.311Z,13.05
2022-08-24T10:12:02.313Z,8.35
2022-08-24T10:14:54.514Z,11.20
2022-08-24T10:17:54.980Z,12.65
2022-08-24T10:20:41.439Z,10.35
2022-08-24T10:23:19.874Z,5.75
2022-08-24T10:25:46.663Z,10.90
2022-08-24T10:28:19.051Z,8.02
2022-08-24T10:31:09.668Z,10.30
2022-08-24T10:33:47.626Z,7.38
2022-08-24T10:36:32.935Z,8.68
2022-08-24T10:39:45.518Z,9.82
2022-08-24T10:42:37.849Z,6.32
2022-08-24T10:45:23.445Z,7.38
2022-08-24T10:48:33.089Z,6.20
2022-08-24T10:51:07.322Z,11.52
2022-08-24T10:53:35.036Z,11.50
2022-08-24T10:56:12.486Z,6.93
2022-08-24T10:58:49.952Z,6.22
2022-08-24T11:01:18.918Z,7.75
2022-08-24T11:03:53.440Z,4.57
2022-08-24T11:06:21.951Z,6.22
2022-08-24T11:08:55.215Z,6.35
2022-08-24T11:11:32.540Z,9.32
2022-08-24T11:14:03.474Z,7.90
2022-08-24T11:16:42.397Z,6.47
2022-08-24T11:19:13.361Z,8.98
2022-08-24T11:21:50.200Z,9.45
2022-08-24T11:24:26.022Z,4.13
2022-08-24T11:27:05.137Z,5.97
2022-08-24T11:29:49.895Z,6.25
2022-08-24T11:32:31.107Z,4.22
2022-08-24T11:35:22.566Z,4.55
2022-08-24T11:37:51.727Z,3.67
2022-08-24T11:40:21.855Z,2.78
2022-08-24T11:43:26.537Z,5.20
2022-08-24T11:46:38.741Z,4.28
2022-08-24T11:49:23.426Z,5.55
2022-08-24T11:52:15.779Z,4.32
2022-08-24T11:55:02.538Z,4.85
2022-08-24T11:57:58.819Z,4.60
2022-08-24T12:00:35.518Z,5.00
2022-08-24T12:03:23.807Z,4.15
2022-08-24T12:05:55.318Z,4.95
2022-08-24T12:08:40.057Z,4.45
2022-08-24T12:11:29.609Z,5.63
2022-08-24T12:14:09.002Z,5.82
2022-08-24T12:16:54.038Z,4.93
2022-08-24T12:19:37.737Z,5.35
2022-08-24T12:22:07.788Z,4.88
2022-08-24T12:24:43.835Z,6.32
2022-08-24T12:27:25.802Z,5.15
2022-08-24T12:30:12.388Z,4.72
2022-08-24T12:32:43.797Z,7.07
2022-08-24T12:35:26.583Z,4.88
2022-08-24T12:38:08.309Z,4.80
2022-08-24T12:40:54.208Z,4.45
2022-08-24T12:43:27.383Z,3.20
2022-08-24T12:46:10.271Z,3.28
2022-08-24T12:48:40.165Z,5.18
2022-08-24T12:51:25.922Z,4.78
2022-08-24T12:54:10.789Z,5.78
2022-08-24T12:56:55.518Z,3.58
2022-08-24T13:02:19.724Z,4.03
2022-08-24T13:04:52.812Z,4.75
2022-08-24T13:07:19.525Z,4.25
2022-08-24T13:09:49.646Z,3.45
2022-08-24T13:12:48.653Z,6.50
2022-08-24T13:15:46.554Z,3.50
2022-08-24T13:18:13.357Z,5.22
2022-08-24T13:20:43.158Z,3.70
2022-08-24T13:23:22.847Z,6.07
2022-08-24T13:26:22.262Z,3.15
2022-08-24T13:28:52.729Z,2.75
2022-08-24T13:31:33.853Z,3.42
2022-08-24T13:34:22.102Z,4.45
2022-08-24T13:37:18.749Z,2.85
2022-08-24T13:39:54.423Z,5.22
2022-08-24T13:42:49.006Z,5.25
2022-08-24T13:45:38.752Z,4.45
2022-08-24T13:48:11.504Z,3.17
2022-08-24T13:51:05.727Z,3.30
2022-08-24T13:56:32.664Z,4.13
2022-08-24T13:59:19.535Z,4.47
2022-08-24T14:02:32.394Z,4.50
2022-08-24T14:05:12.846Z,3.05
2022-08-24T14:07:52.750Z,3.53
2022-08-24T14:10:53.666Z,5.43
2022-08-24T14:14:44.797Z,4.60
2022-08-24T14:17:36.207Z,3.78
2022-08-24T14:20:22.296Z,3.92
2022-08-24T14:22:52.419Z,4.55
2022-08-24T14:25:25.383Z,4.15
2022-08-24T14:27:56.119Z,3.03
2022-08-24T14:30:23.490Z,3.88
2022-08-24T14:32:59.591Z,4.07
2022-08-24T14:35:47.094Z,3.53
2022-08-24T14:38:38.384Z,4.82
2022-08-24T14:41:21.445Z,4.43
2022-08-24T14:44:06.142Z,4.07
2022-08-24T14:46:40.557Z,4.18
2022-08-24T14:49:25.981Z,3.80
2022-08-24T14:52:10.661Z,4.43
2022-08-24T14:55:07.706Z,3.08
2022-08-24T14:57:53.357Z,4.85
2022-08-24T15:00:33.769Z,4.38
2022-08-24T15:03:42.710Z,6.38
2022-08-24T15:06:28.957Z,5.55
2022-08-24T15:09:25.546Z,3.45
2022-08-24T15:11:59.435Z,5.00
2022-08-24T15:14:38.701Z,4.25
2022-08-24T15:17:10.869Z,3.90
2022-08-24T15:19:51.675Z,3.92
2022-08-24T15:22:37.027Z,4.07
2022-08-24T15:25:24.336Z,4.40
2022-08-24T15:27:55.670Z,4.07
2022-08-24T15:30:27.719Z,6.13
2022-08-24T15:33:12.385Z,4.38
2022-08-24T15:35:44.262Z,2.58
2022-08-24T15:38:31.509Z,6.43
2022-08-24T15:41:20.569Z,5.53
2022-08-24T15:43:51.533Z,3.50
2022-08-24T15:46:26.185Z,6.15
2022-08-24T15:49:13.798Z,4.90
2022-08-24T15:51:43.329Z,4.50
2022-08-24T15:54:22.778Z,5.20
2022-08-24T15:56:59.739Z,5.50
2022-08-24T15:59:41.508Z,3.53
2022-08-24T16:02:26.654Z,5.10
2022-08-24T16:05:31.033Z,4.45
2022-08-24T16:08:04.274Z,6.40
2022-08-24T16:10:49.766Z,4.75
2022-08-24T16:13:21.635Z,3.30
2022-08-24T16:15:57.218Z,3.97
2022-08-24T16:18:27.447Z,4.45
2022-08-24T16:21:14.751Z,3.95
2022-08-24T16:23:46.044Z,4.30
2022-08-24T16:26:28.086Z,4.65
2022-08-24T16:28:56.512Z,4.60
2022-08-24T16:31:44.904Z,5.55
2022-08-24T16:34:27.833Z,6.45
2022-08-24T16:36:55.100Z,4.07
2022-08-24T16:39:22.489Z,4.85
2022-08-24T16:41:52.666Z,3.70
2022-08-24T16:44:19.489Z,3.30
2022-08-24T16:46:52.857Z,5.53
2022-08-24T16:49:19.671Z,6.10
2022-08-24T16:51:46.549Z,5.55
2022-08-24T16:54:14.206Z,3.75
2022-08-24T16:56:42.592Z,5.20
2022-08-24T16:59:14.619Z,4.07
2022-08-24T17:01:41.532Z,4.00
2022-08-24T17:04:08.449Z,5.63
2022-08-24T17:06:36.272Z,3.53
2022-08-24T17:09:05.581Z,4.18
2022-08-24T17:11:34.753Z,4.70
2022-08-24T17:14:01.560Z,3.65
2022-08-24T17:16:28.833Z,4.55
2022-08-24T17:18:58.822Z,4.75
2022-08-24T17:21:28.577Z,4.75
2022-08-24T17:23:57.743Z,6.93
2022-08-24T17:26:24.516Z,3.90
2022-08-24T17:28:54.489Z,3.72
2022-08-24T17:31:24.700Z,4.20
2022-08-24T17:33:53.186Z,6.13
2022-08-24T17:36:24.030Z,3.65
2022-08-24T17:38:55.836Z,4.65
2022-08-24T17:41:25.370Z,4.50
2022-08-24T17:43:55.673Z,4.68
2022-08-24T17:46:24.842Z,4.40
2022-08-24T17:48:51.702Z,4.55
2022-08-24T17:51:18.993Z,5.10
2022-08-24T17:53:51.308Z,4.13
2022-08-24T17:56:20.803Z,4.32
2022-08-24T17:59:08.677Z,3.33
2022-08-24T18:01:35.480Z,6.43
2022-08-24T18:04:02.538Z,4.72
2022-08-24T18:06:31.686Z,11.60
2022-08-24T18:09:03.791Z,5.18
2022-08-24T18:11:30.971Z,5.75
2022-08-24T18:14:01.553Z,4.38
2022-08-24T18:16:32.095Z,6.43
2022-08-24T18:19:01.729Z,10.75
2022-08-24T18:21:31.556Z,6.97
2022-08-24T18:24:01.489Z,5.80
2022-08-24T18:26:32.036Z,4.72
2022-08-24T18:29:08.866Z,5.60
2022-08-24T18:31:38.508Z,4.93
2022-08-24T18:34:07.805Z,6.82
2022-08-24T18:36:36.711Z,14.35
2022-08-24T18:39:07.022Z,8.52
2022-08-24T18:41:40.331Z,8.30
2022-08-24T18:44:08.730Z,9.35
2022-08-24T18:46:47.811Z,14.13
2022-08-24T18:49:16.146Z,10.88
2022-08-24T18:51:48.017Z,8.63
2022-08-24T18:54:21.254Z,14.30
2022-08-24T18:56:48.728Z,11.25
2022-08-24T18:59:22.026Z,11.90
2022-08-24T19:02:09.962Z,8.60
2022-08-24T19:04:47.110Z,11.35
2022-08-24T19:07:14.965Z,8.50
2022-08-24T19:09:44.178Z,9.35
2022-08-24T19:12:16.904Z,9.30
2022-08-24T19:14:46.536Z,11.45
2022-08-24T19:17:15.046Z,9.70
2022-08-24T19:19:42.068Z,9.93
2022-08-24T19:22:12.643Z,10.02
2022-08-24T19:24:39.704Z,12.13
2022-08-24T19:27:09.044Z,9.15
2022-08-24T19:29:55.174Z,10.40
2022-08-24T19:32:25.808Z,9.60
2022-08-24T19:34:54.277Z,10.52
2022-08-24T19:37:23.702Z,10.57
2022-08-24T19:39:51.008Z,11.27
2022-08-24T19:42:18.334Z,10.35
2022-08-24T19:45:06.355Z,8.77
2022-08-24T19:47:36.056Z,6.93
2022-08-24T19:50:07.765Z,11.55
2022-08-24T19:52:38.073Z,9.18
2022-08-24T19:55:09.962Z,9.90
2022-08-24T19:57:41.052Z,10.05
2022-08-24T20:00:17.277Z,11.80
2022-08-24T20:02:51.715Z,8.57
2022-08-24T20:05:23.632Z,11.25
2022-08-24T20:07:51.101Z,9.25
2022-08-24T20:10:23.399Z,9.80
2022-08-24T20:12:55.347Z,7.55
2022-08-24T20:15:22.666Z,10.57
2022-08-24T20:17:52.005Z,7.93
2022-08-24T20:20:23.643Z,10.32
2022-08-24T20:22:50.803Z,10.20
2022-08-24T20:25:18.534Z,8.52
2022-08-24T20:27:46.314Z,7.32
2022-08-24T20:30:15.407Z,9.60
2022-08-24T20:32:42.423Z,9.93
2022-08-24T20:35:10.310Z,7.10
2022-08-24T20:37:39.091Z,9.38
2022-08-24T20:40:06.296Z,8.00
2022-08-24T20:42:33.087Z,9.60
2022-08-24T20:45:00.670Z,7.68
2022-08-24T20:47:27.773Z,7.10
2022-08-24T20:49:54.968Z,8.90
2022-08-24T20:52:21.881Z,7.15
2022-08-24T20:54:50.929Z,8.38
2022-08-24T20:57:20.006Z,9.50
2022-08-24T20:59:47.351Z,10.20
2022-08-24T21:02:14.225Z,9.15
2022-08-24T21:04:41.068Z,12.20
2022-08-24T21:07:11.951Z,8.75
2022-08-24T21:09:43.478Z,14.35
2022-08-24T21:12:10.188Z,8.75
2022-08-24T21:14:36.975Z,9.25
2022-08-24T21:17:05.780Z,6.55
2022-08-24T21:19:35.745Z,7.20
2022-08-24T21:22:04.742Z,10.85
2022-08-24T21:24:33.711Z,10.20
2022-08-24T21:27:02.582Z,11.73
2022-08-24T21:29:30.776Z,8.35
2022-08-24T21:32:15.936Z,7.38
2022-08-24T21:34:42.757Z,9.55
2022-08-24T21:37:11.817Z,6.65
2022-08-24T21:39:39.072Z,7.93
2022-08-24T21:42:09.633Z,5.50
2022-08-24T21:44:36.679Z,10.65
2022-08-24T21:47:05.711Z,7.18
2022-08-24T21:49:34.046Z,7.53
2022-08-24T21:52:01.205Z,17.38
2022-08-24T21:54:27.946Z,6.22
2022-08-24T21:56:54.813Z,7.20
2022-08-24T21:59:21.653Z,7.45
2022-08-24T22:01:50.925Z,7.28
2022-08-24T22:04:18.239Z,5.25
2022-08-24T22:06:45.109Z,7.82
2022-08-24T22:09:14.661Z,7.97
2022-08-24T22:11:42.664Z,10.27
2022-08-24T22:14:09.616Z,7.90
2022-08-24T22:16:37.163Z,6.35
2022-08-24T22:19:13.530Z,7.20
2022-08-24T22:21:48.029Z,5.07
2022-08-24T22:24:16.267Z,5.90
2022-08-24T22:26:43.707Z,4.45
2022-08-24T22:29:14.245Z,5.32
2022-08-24T22:31:42.895Z,7.93
2022-08-24T22:34:19.522Z,7.47
2022-08-24T22:36:52.756Z,5.15
2022-08-24T22:39:20.651Z,6.53
2022-08-24T22:41:47.420Z,4.72
2022-08-24T22:44:21.084Z,4.32
2022-08-24T22:46:54.757Z,4.75
2022-08-24T22:49:24.179Z,6.57
2022-08-24T22:51:54.064Z,5.22
2022-08-24T22:54:22.001Z,3.90
2022-08-24T22:56:51.902Z,4.18
2022-08-24T22:59:28.455Z,5.53
2022-08-24T23:01:57.116Z,5.30
2022-08-24T23:04:28.922Z,4.60
2022-08-24T23:06:57.121Z,5.03
2022-08-24T23:09:28.686Z,7.22
2022-08-24T23:12:10.432Z,7.30
2022-08-24T23:14:40.480Z,5.10
2022-08-24T23:17:07.771Z,6.10
2022-08-24T23:19:57.150Z,9.13
2022-08-24T23:22:23.985Z,6.43
2022-08-24T23:24:53.242Z,7.38
2022-08-24T23:27:20.411Z,5.28
2022-08-24T23:29:48.545Z,4.30
2022-08-24T23:32:18.264Z,4.57
2022-08-24T23:34:47.485Z,6.00
2022-08-24T23:37:16.196Z,3.80
2022-08-24T23:39:43.170Z,6.85
2022-08-24T23:42:10.665Z,4.80
2022-08-24T23:44:39.146Z,8.30
2022-08-24T23:47:06.983Z,4.28
2022-08-24T23:49:35.438Z,6.55
2022-08-24T23:52:03.281Z,5.72
2022-08-24T23:54:30.150Z,4.63
2022-08-24T23:56:57.471Z,6.32
2022-08-24T23:59:27.435Z,6.25
